Time;durP1;ratioP1;P1;durP2;ratioP2;P2;SDS_P1;SDS_P2;PMS_P1;PMS_P2;Temp;Humidity;BMP_temperature;BMP_pressure;BME280_temperature;BME280_humidity;BME280_pressure;Samples;Min_cycle;Max_cycle;Signal;HPM_P1;HPM_P2
2021/11/04 00:01:33;;;;;;;1.27;0.30;;;;;;;6.46;94.86;96751.22;5020918;28;20106;-60
2021/11/04 00:03:59;;;;;;;0.85;0.30;;;;;;;6.39;95.96;96737.38;5050991;28;20033;-60
2021/11/04 00:06:24;;;;;;;0.63;0.20;;;;;;;6.37;95.96;96728.16;5053202;28;20036;-60
2021/11/04 00:08:50;;;;;;;0.45;0.13;;;;;;;6.43;96.62;96737.84;5050961;28;20024;-61
2021/11/04 00:11:15;;;;;;;0.45;0.20;;;;;;;6.40;97.17;96730.41;5055549;28;20455;-61
2021/11/04 00:13:41;;;;;;;1.90;0.30;;;;;;;6.37;98.34;96723.00;5045392;28;20029;-60
2021/11/04 00:16:09;;;;;;;1.25;0.30;;;;;;;6.27;96.07;96713.66;5043197;28;20406;-60
2021/11/04 00:18:35;;;;;;;2.15;0.30;;;;;;;6.44;97.77;96729.91;5045196;28;20025;-58
2021/11/04 00:21:01;;;;;;;0.22;0.10;;;;;;;6.43;97.91;96727.50;5053188;28;20071;-59
2021/11/04 00:23:26;;;;;;;0.90;0.30;;;;;;;6.44;98.58;96713.63;5044673;28;20486;-60
2021/11/04 00:25:52;;;;;;;0.00;0.00;;;;;;;6.55;96.76;96718.44;5053681;28;20029;-60
2021/11/04 00:28:18;;;;;;;1.25;0.30;;;;;;;6.59;97.62;96700.81;5042864;28;20578;-60
2021/11/04 00:30:44;;;;;;;1.02;0.20;;;;;;;6.60;96.45;96689.53;5047723;28;20071;-60
2021/11/04 00:33:09;;;;;;;0.60;0.13;;;;;;;6.72;94.77;96704.50;5045099;28;20529;-60
2021/11/04 00:35:35;;;;;;;0.45;0.10;;;;;;;6.52;92.44;96703.28;5050554;28;20030;-60
2021/11/04 00:38:01;;;;;;;0.43;0.00;;;;;;;6.70;93.26;96734.06;5038580;28;20442;-59
2021/11/04 00:40:26;;;;;;;0.85;0.35;;;;;;;6.81;92.48;96727.72;5057846;28;20064;-60
2021/11/04 00:42:52;;;;;;;0.10;0.10;;;;;;;6.67;91.70;96718.91;5063283;28;20103;-59
2021/11/04 00:45:18;;;;;;;0.55;0.10;;;;;;;6.59;92.75;96721.50;5054656;28;20167;-60
2021/11/04 00:47:43;;;;;;;0.40;0.20;;;;;;;6.63;94.41;96728.75;5060521;28;20030;-60
2021/11/04 00:50:09;;;;;;;0.88;0.25;;;;;;;6.51;95.18;96732.66;5057358;28;20045;-59
2021/11/04 00:52:35;;;;;;;2.00;0.20;;;;;;;6.48;95.66;96751.03;5059453;28;20189;-59
2021/11/04 00:55:00;;;;;;;0.55;0.10;;;;;;;6.40;93.39;96733.78;5037306;28;20078;-59
2021/11/04 00:57:26;;;;;;;0.65;0.20;;;;;;;6.23;94.12;96706.41;5038965;28;20109;-59
2021/11/04 00:59:51;;;;;;;0.20;0.10;;;;;;;6.54;93.53;96752.97;5038433;28;20083;-59
2021/11/04 01:02:17;;;;;;;0.35;0.10;;;;;;;6.02;93.13;96697.38;5046071;28;20036;-59
2021/11/04 01:04:42;;;;;;;1.25;0.35;;;;;;;6.32;94.94;96764.81;5032893;28;20063;-60
2021/11/04 01:07:08;;;;;;;0.52;0.20;;;;;;;6.24;91.44;96760.47;5056481;28;20032;-60
2021/11/04 01:09:33;;;;;;;1.00;0.20;;;;;;;6.27;93.86;96757.53;5058128;28;20117;-59
2021/11/04 01:11:58;;;;;;;0.63;0.10;;;;;;;6.32;92.88;96760.44;5051873;28;20029;-60
2021/11/04 01:14:24;;;;;;;0.32;0.10;;;;;;;6.39;92.64;96739.94;5053796;28;20475;-59
2021/11/04 01:16:49;;;;;;;0.43;0.10;;;;;;;6.36;95.09;96732.53;5049425;28;20056;-60
2021/11/04 01:19:15;;;;;;;0.70;0.17;;;;;;;5.82;90.83;96629.81;5057406;28;20025;-59
2021/11/04 01:21:41;;;;;;;0.40;0.10;;;;;;;6.07;87.90;96671.91;5050164;28;20079;-59
2021/11/04 01:24:07;;;;;;;0.30;0.10;;;;;;;6.39;86.15;96721.88;5058417;28;20497;-59
2021/11/04 01:26:33;;;;;;;0.08;0.08;;;;;;;6.43;86.66;96743.81;5043125;28;20038;-59
2021/11/04 01:28:58;;;;;;;0.90;0.10;;;;;;;6.46;90.29;96740.06;5052047;28;20124;-60
2021/11/04 01:31:24;;;;;;;0.45;0.20;;;;;;;6.39;94.44;96736.53;5058884;28;20119;-60
2021/11/04 01:33:49;;;;;;;0.60;0.20;;;;;;;6.42;93.94;96741.38;5052858;28;20036;-60
2021/11/04 01:36:15;;;;;;;0.28;0.10;;;;;;;6.47;94.34;96736.53;5055954;28;20113;-60
2021/11/04 01:38:40;;;;;;;0.28;0.10;;;;;;;6.20;93.93;96702.38;5047472;28;20546;-60
2021/11/04 01:41:05;;;;;;;0.40;0.20;;;;;;;6.23;93.06;96740.75;5047476;28;20028;-60
2021/11/04 01:43:31;;;;;;;0.30;0.15;;;;;;;6.22;91.58;96733.19;5040278;28;20032;-60
2021/11/04 01:45:56;;;;;;;0.22;0.10;;;;;;;6.20;92.93;96740.28;5046631;28;20671;-60
2021/11/04 01:48:22;;;;;;;0.88;0.20;;;;;;;6.07;93.96;96745.94;5052023;28;20778;-60
2021/11/04 01:50:47;;;;;;;0.30;0.20;;;;;;;6.07;93.35;96725.28;5052778;28;20099;-60
2021/11/04 01:53:13;;;;;;;0.10;0.10;;;;;;;6.20;92.46;96735.91;5053388;28;20388;-58
2021/11/04 01:55:39;;;;;;;0.35;0.10;;;;;;;6.18;92.97;96739.66;5041834;28;20037;-60
2021/11/04 01:58:05;;;;;;;0.20;0.10;;;;;;;5.91;94.13;96693.34;5047706;28;20040;-60
2021/11/04 02:00:31;;;;;;;0.52;0.20;;;;;;;6.21;93.86;96740.13;5052941;28;20082;-59
2021/11/04 02:03:20;;;;;;;0.10;0.00;;;;;;;6.26;92.46;96742.19;5065722;28;20037;-61
2021/11/04 02:06:10;;;;;;;0.70;0.20;;;;;;;6.30;92.50;96738.34;5041733;28;20127;-60
2021/11/04 02:08:42;;;;;;;;;;;;;;;6.39;90.39;96749.44;5049231;28;20021;-60
2021/11/04 02:11:16;;;;;;;0.20;0.10;;;;;;;6.28;92.00;96727.34;5051728;28;20003;-60
2021/11/04 02:14:00;;;;;;;0.15;0.15;;;;;;;6.04;92.15;96700.63;5046691;28;20090;-60
2021/11/04 02:16:28;;;;;;;0.35;0.20;;;;;;;6.23;91.71;96730.44;5054818;28;20124;-60
2021/11/04 02:18:55;;;;;;;0.10;0.10;;;;;;;6.42;91.49;96751.72;5039149;28;20089;-60
2021/11/04 02:21:38;;;;;;;0.13;0.13;;;;;;;6.33;91.60;96746.56;5037793;28;20036;-60
2021/11/04 02:24:06;;;;;;;0.75;0.20;;;;;;;6.23;91.50;96733.03;5056515;28;20505;-61
2021/11/04 02:26:33;;;;;;;0.22;0.10;;;;;;;6.16;92.58;96724.31;5052084;28;20052;-60
2021/11/04 02:28:58;;;;;;;0.82;0.10;;;;;;;6.49;91.57;96776.69;5049040;28;20052;-60
2021/11/04 02:31:25;;;;;;;0.10;0.10;;;;;;;6.57;92.02;96783.66;5049295;28;20367;-60
2021/11/04 02:33:50;;;;;;;0.20;0.10;;;;;;;6.43;91.94;96774.78;4994497;28;20109;-60
2021/11/04 02:36:16;;;;;;;0.47;0.10;;;;;;;6.62;90.40;96794.28;5051116;28;20107;-60
2021/11/04 02:38:42;;;;;;;0.30;0.20;;;;;;;6.59;91.56;96797.19;5041058;28;20143;-60
2021/11/04 02:41:07;;;;;;;0.73;0.20;;;;;;;6.36;91.39;96748.00;5041816;28;20056;-59
2021/11/04 02:43:34;;;;;;;0.80;0.20;;;;;;;6.78;88.53;96793.44;5047758;28;20065;-60
2021/11/04 02:46:01;;;;;;;0.63;0.20;;;;;;;6.81;86.62;96789.72;5035651;28;20148;-61
2021/11/04 02:48:27;;;;;;;0.22;0.10;;;;;;;6.86;86.96;96787.44;5045543;28;20033;-60
2021/11/04 02:50:53;;;;;;;0.75;0.20;;;;;;;6.86;89.97;96769.34;5040041;28;20101;-60
2021/11/04 02:53:21;;;;;;;1.00;0.10;;;;;;;6.93;87.78;96773.69;5050601;28;20112;-60
2021/11/04 02:55:48;;;;;;;0.10;0.10;;;;;;;6.98;86.70;96768.03;5058570;28;20028;-60
2021/11/04 02:58:14;;;;;;;0.10;0.10;;;;;;;7.19;87.96;96770.06;5056483;28;20604;-60
2021/11/04 03:00:43;;;;;;;0.10;0.10;;;;;;;7.17;87.50;96766.03;5036907;28;20045;-59
2021/11/04 03:03:08;;;;;;;0.10;0.10;;;;;;;7.26;87.87;96760.63;5053805;28;20047;-60
2021/11/04 03:05:34;;;;;;;0.45;0.10;;;;;;;7.16;86.84;96741.16;4980545;28;20131;-60
2021/11/04 03:07:59;;;;;;;0.35;0.10;;;;;;;7.27;88.56;96748.53;5061719;28;20047;-60
2021/11/04 03:10:25;;;;;;;0.40;0.10;;;;;;;7.31;88.33;96727.34;5059565;28;20444;-61
2021/11/04 03:12:51;;;;;;;0.15;0.10;;;;;;;7.17;85.07;96724.66;5060208;28;20123;-59
2021/11/04 03:15:19;;;;;;;0.32;0.15;;;;;;;7.34;86.72;96735.72;5052506;28;20044;-60
2021/11/04 03:17:47;;;;;;;0.47;0.10;;;;;;;7.81;81.89;96732.19;5040883;28;20028;-60
2021/11/04 03:20:15;;;;;;;0.20;0.10;;;;;;;7.89;81.59;96739.91;5057832;28;20041;-60
2021/11/04 03:22:41;;;;;;;0.10;0.10;;;;;;;8.01;81.34;96750.66;5038737;28;20736;-60
2021/11/04 03:25:08;;;;;;;0.20;0.13;;;;;;;8.06;81.08;96741.38;5056043;28;20037;-61
2021/11/04 03:27:35;;;;;;;0.08;0.08;;;;;;;7.89;83.84;96740.72;5061441;28;20032;-61
2021/11/04 03:30:03;;;;;;;0.00;0.00;;;;;;;7.87;83.67;96745.25;5058244;28;20028;-60
2021/11/04 03:32:28;;;;;;;0.40;0.10;;;;;;;7.81;84.43;96735.59;5051658;28;20052;-59
2021/11/04 03:34:54;;;;;;;0.32;0.10;;;;;;;7.45;86.96;96717.25;5053003;28;20040;-61
2021/11/04 03:37:21;;;;;;;0.10;0.10;;;;;;;7.72;85.16;96749.56;5050698;28;20067;-61
2021/11/04 03:39:47;;;;;;;0.10;0.10;;;;;;;7.74;84.51;96745.03;5056060;28;20522;-59
2021/11/04 03:42:13;;;;;;;0.40;0.10;;;;;;;7.38;84.90;96695.66;5044065;28;20483;-60
2021/11/04 03:44:40;;;;;;;0.10;0.10;;;;;;;7.66;85.63;96743.28;5057355;28;20087;-59
2021/11/04 03:47:05;;;;;;;0.00;0.00;;;;;;;7.58;85.93;96745.13;5040979;28;20151;-58
2021/11/04 03:49:31;;;;;;;0.70;0.20;;;;;;;7.66;86.04;96753.63;5051735;28;20132;-58
2021/11/04 03:51:57;;;;;;;0.10;0.10;;;;;;;7.48;81.73;96706.53;5048948;28;20032;-60
2021/11/04 03:54:24;;;;;;;0.55;0.10;;;;;;;7.86;85.62;96768.72;5053865;28;20107;-61
2021/11/04 03:56:54;;;;;;;0.38;0.10;;;;;;;7.84;82.96;96768.09;5050890;28;20025;-60
2021/11/04 03:59:21;;;;;;;0.10;0.10;;;;;;;7.90;81.03;96777.72;5061332;28;20040;-60
2021/11/04 04:01:47;;;;;;;0.30;0.03;;;;;;;8.17;74.95;96770.44;5056186;28;20440;-59
2021/11/04 04:04:12;;;;;;;0.52;0.10;;;;;;;8.24;76.24;96776.53;5056898;28;20040;-59
2021/11/04 04:06:37;;;;;;;0.50;0.10;;;;;;;7.86;78.20;96735.88;5038066;28;20135;-58
2021/11/04 04:09:05;;;;;;;0.68;0.20;;;;;;;8.06;77.00;96790.56;5051177;28;20044;-61
2021/11/04 04:11:30;;;;;;;0.40;0.10;;;;;;;8.24;75.53;96818.75;5056187;28;20479;-60
2021/11/04 04:13:56;;;;;;;0.10;0.10;;;;;;;8.18;75.16;96803.91;5051332;28;20039;-59
2021/11/04 04:16:22;;;;;;;0.20;0.10;;;;;;;7.97;73.37;96759.75;5057776;28;20032;-60
2021/11/04 04:18:48;;;;;;;0.10;0.03;;;;;;;8.25;73.56;96802.25;5048576;28;20170;-62
2021/11/04 04:21:14;;;;;;;0.20;0.10;;;;;;;8.41;74.55;96827.19;5041661;28;20662;-60
2021/11/04 04:23:40;;;;;;;0.73;0.10;;;;;;;8.04;77.43;96823.56;5037995;28;20434;-60
2021/11/04 04:26:06;;;;;;;0.15;0.05;;;;;;;7.59;79.63;96799.25;5054737;28;20032;-60
2021/11/04 04:28:32;;;;;;;0.50;0.20;;;;;;;7.73;79.52;96835.75;5046064;28;20032;-60
2021/11/04 04:30:58;;;;;;;0.22;0.08;;;;;;;7.81;79.77;96839.09;5050221;28;20082;-59
2021/11/04 04:33:23;;;;;;;0.10;0.10;;;;;;;7.81;79.80;96840.88;5058060;28;20075;-59
2021/11/04 04:35:50;;;;;;;0.45;0.13;;;;;;;7.90;79.37;96845.00;5053065;28;20399;-59
2021/11/04 04:38:15;;;;;;;0.47;0.10;;;;;;;7.90;77.34;96837.25;5056637;28;20055;-58
2021/11/04 04:40:40;;;;;;;0.55;0.10;;;;;;;8.07;77.06;96856.91;5056735;28;20036;-59
2021/11/04 04:43:06;;;;;;;0.35;0.22;;;;;;;8.09;77.31;96860.13;5053435;28;20960;-58
2021/11/04 04:45:31;;;;;;;1.17;0.20;;;;;;;7.71;77.84;96815.22;5054088;28;20139;-58
2021/11/04 04:47:57;;;;;;;0.47;0.13;;;;;;;7.96;76.67;96859.06;5049551;28;20033;-60
2021/11/04 04:50:22;;;;;;;0.43;0.13;;;;;;;7.98;77.06;96859.72;5055646;28;20043;-59
2021/11/04 04:52:47;;;;;;;0.32;0.10;;;;;;;8.07;75.86;96863.88;5059838;28;20088;-59
2021/11/04 04:55:14;;;;;;;0.32;0.20;;;;;;;8.16;75.17;96873.19;5050343;28;20159;-59
2021/11/04 04:57:39;;;;;;;0.22;0.13;;;;;;;8.04;77.11;96882.31;5048838;28;20419;-59
2021/11/04 05:00:11;;;;;;;0.85;0.30;;;;;;;8.11;76.68;96885.03;5057743;28;20043;-60
2021/11/04 05:02:38;;;;;;;0.25;0.13;;;;;;;8.02;76.35;96874.72;5037849;28;20024;-58
2021/11/04 05:05:04;;;;;;;0.10;0.10;;;;;;;7.83;77.29;96847.50;5050131;28;20085;-59
2021/11/04 05:07:29;;;;;;;0.20;0.10;;;;;;;8.09;77.00;96877.44;5054355;28;20654;-59
2021/11/04 05:09:55;;;;;;;0.35;0.10;;;;;;;8.09;76.75;96885.19;5034182;28;20046;-58
2021/11/04 05:12:20;;;;;;;1.15;0.20;;;;;;;8.22;75.74;96890.63;5053762;28;20029;-59
2021/11/04 05:14:46;;;;;;;0.10;0.10;;;;;;;8.12;77.80;96892.59;5025360;28;20121;-59
2021/11/04 05:17:12;;;;;;;0.52;0.15;;;;;;;7.82;77.59;96847.66;5024277;28;20145;-59
2021/11/04 05:19:37;;;;;;;0.13;0.10;;;;;;;8.10;75.84;96904.91;5038102;28;20499;-59
2021/11/04 05:22:03;;;;;;;1.95;0.32;;;;;;;8.04;77.87;96892.66;5029252;28;20048;-59
2021/11/04 05:24:33;;;;;;;1.15;0.30;;;;;;;8.09;74.97;96909.28;5055198;28;20033;-59
2021/11/04 05:27:00;;;;;;;0.15;0.10;;;;;;;8.24;74.66;96909.38;5050180;28;20060;-60
2021/11/04 05:29:27;;;;;;;0.43;0.20;;;;;;;7.92;74.64;96863.75;5057861;28;20070;-58
2021/11/04 05:31:52;;;;;;;0.68;0.20;;;;;;;8.22;72.58;96902.75;5053667;28;20035;-58
2021/11/04 05:34:18;;;;;;;1.42;0.40;;;;;;;8.32;72.65;96923.25;5055150;28;20032;-57
2021/11/04 05:36:43;;;;;;;0.73;0.20;;;;;;;8.37;73.05;96924.34;5038747;28;20040;-59
2021/11/04 05:39:08;;;;;;;0.15;0.10;;;;;;;8.00;75.13;96881.06;5057201;28;20112;-59
2021/11/04 05:41:34;;;;;;;0.43;0.20;;;;;;;8.22;75.15;96929.44;5040949;28;20177;-58
2021/11/04 05:44:00;;;;;;;0.10;0.10;;;;;;;8.11;76.71;96935.03;5060644;28;20550;-59
2021/11/04 05:46:25;;;;;;;0.77;0.30;;;;;;;8.16;77.16;96943.09;5039974;28;20020;-58
2021/11/04 05:48:51;;;;;;;1.40;0.40;;;;;;;8.13;77.30;96942.63;5030548;28;20569;-58
2021/11/04 05:51:16;;;;;;;0.75;0.22;;;;;;;7.85;77.41;96914.63;5048845;28;20063;-58
2021/11/04 05:53:42;;;;;;;0.90;0.30;;;;;;;7.97;77.95;96953.84;5049446;28;20063;-59
2021/11/04 05:56:07;;;;;;;0.93;0.28;;;;;;;7.75;78.59;96943.25;5052641;28;20489;-59
2021/11/04 05:58:33;;;;;;;1.38;0.40;;;;;;;7.97;79.23;96977.94;5051936;28;20097;-58
2021/11/04 06:00:58;;;;;;;0.15;0.10;;;;;;;7.95;79.62;96985.06;5056127;28;20024;-60
2021/11/04 06:03:23;;;;;;;0.65;0.20;;;;;;;7.85;80.05;96987.88;5037905;28;20028;-60
2021/11/04 06:05:49;;;;;;;0.50;0.20;;;;;;;7.77;81.10;96990.47;5034705;28;20029;-59
2021/11/04 06:08:14;;;;;;;1.10;0.30;;;;;;;7.84;80.38;97006.94;5036094;28;20047;-59
2021/11/04 06:10:40;;;;;;;0.95;0.20;;;;;;;7.82;81.43;97019.25;5046420;28;20040;-60
2021/11/04 06:13:06;;;;;;;0.32;0.25;;;;;;;7.97;78.92;97027.13;5054039;28;20029;-58
2021/11/04 06:15:31;;;;;;;2.08;0.38;;;;;;;7.83;79.82;97013.09;5054551;28;20028;-59
2021/11/04 06:17:57;;;;;;;0.80;0.15;;;;;;;7.77;79.81;97031.06;5053120;28;20030;-59
2021/11/04 06:20:22;;;;;;;0.43;0.20;;;;;;;7.55;78.08;96998.94;5037038;28;20036;-59
2021/11/04 06:22:48;;;;;;;0.60;0.17;;;;;;;7.93;76.56;97040.56;5039387;28;20130;-58
2021/11/04 06:25:14;;;;;;;0.40;0.17;;;;;;;7.89;77.25;97051.25;5030728;28;20115;-60
2021/11/04 06:27:39;;;;;;;0.38;0.20;;;;;;;7.99;75.52;97055.44;5055010;28;20040;-59
2021/11/04 06:30:06;;;;;;;1.35;0.20;;;;;;;8.03;75.16;97062.72;5051206;28;20706;-59
2021/11/04 06:32:31;;;;;;;1.27;0.20;;;;;;;8.07;75.02;97070.94;5043477;28;20861;-59
2021/11/04 06:34:57;;;;;;;0.28;0.10;;;;;;;8.14;74.33;97071.91;5031724;28;20515;-59
2021/11/04 06:37:22;;;;;;;1.30;0.30;;;;;;;8.05;76.30;97078.88;5049354;28;20527;-60
2021/11/04 06:39:48;;;;;;;0.55;0.20;;;;;;;8.02;75.67;97073.22;5048012;28;20044;-59
2021/11/04 06:42:13;;;;;;;1.98;0.40;;;;;;;7.96;77.06;97079.03;5053745;28;20667;-60
2021/11/04 06:44:39;;;;;;;2.42;0.40;;;;;;;7.96;77.28;97079.03;5055019;28;20034;-58
2021/11/04 06:47:06;;;;;;;0.90;0.20;;;;;;;7.94;77.22;97088.75;5070455;28;20037;-60
2021/11/04 06:49:36;;;;;;;1.25;0.30;;;;;;;7.99;77.01;97095.06;5053860;28;20033;-59
2021/11/04 06:52:03;;;;;;;0.70;0.20;;;;;;;7.71;77.36;97063.59;5058133;28;20037;-60
2021/11/04 06:54:30;;;;;;;1.13;0.30;;;;;;;7.98;77.23;97111.56;5068715;28;20039;-60
2021/11/04 06:56:57;;;;;;;1.17;0.25;;;;;;;7.93;77.47;97118.22;5051901;28;20025;-58
2021/11/04 06:59:24;;;;;;;0.70;0.20;;;;;;;7.94;78.42;97130.16;5055468;28;20111;-59
2021/11/04 07:01:57;;;;;;;0.80;0.30;;;;;;;7.83;78.43;97139.91;5046859;28;20546;-60
2021/11/04 07:04:24;;;;;;;1.55;0.32;;;;;;;7.64;78.37;97124.72;5050424;28;20702;-60
2021/11/04 07:07:00;;;;;;;1.73;0.40;;;;;;;7.74;77.77;97151.22;5050727;28;20667;-59
2021/11/04 07:09:26;;;;;;;0.68;0.28;;;;;;;7.77;77.16;97156.06;5047607;28;20498;-59
2021/11/04 07:11:52;;;;;;;1.20;0.40;;;;;;;7.83;76.59;97168.38;5041441;28;20418;-59
2021/11/04 07:14:18;;;;;;;0.90;0.20;;;;;;;7.73;75.56;97172.88;5043991;28;20101;-59
2021/11/04 07:16:43;;;;;;;1.05;0.30;;;;;;;7.75;76.29;97181.28;5047392;28;20090;-59
2021/11/04 07:19:09;;;;;;;2.58;0.40;;;;;;;7.74;77.09;97197.81;5049605;28;20108;-60
2021/11/04 07:21:44;;;;;;;1.13;0.32;;;;;;;7.82;75.93;97208.16;5057352;28;20036;-59
2021/11/04 07:24:13;;;;;;;0.93;0.30;;;;;;;7.70;75.21;97161.09;5057638;28;20353;-60
2021/11/04 07:26:41;;;;;;;1.85;0.70;;;;;;;7.77;78.81;97194.06;5063999;28;20025;-60
2021/11/04 07:29:09;;;;;;;1.58;0.30;;;;;;;7.49;81.79;97184.84;5042588;28;20024;-59
2021/11/04 07:31:37;;;;;;;0.70;0.30;;;;;;;7.72;82.33;97237.72;5050306;28;20029;-58
2021/11/04 07:34:07;;;;;;;1.52;0.45;;;;;;;7.67;83.67;97235.63;5028686;28;20835;-59
2021/11/04 07:36:35;;;;;;;1.40;0.40;;;;;;;7.75;82.11;97233.03;5052432;28;20028;-59
2021/11/04 07:39:03;;;;;;;0.82;0.30;;;;;;;7.48;83.23;97205.69;5051807;28;20102;-59
2021/11/04 07:41:30;;;;;;;1.35;0.50;;;;;;;7.68;83.99;97250.19;5052164;28;20032;-59
2021/11/04 07:43:57;;;;;;;2.83;0.80;;;;;;;7.57;84.28;97260.84;5057364;28;20028;-59
2021/11/04 07:46:22;;;;;;;1.95;0.60;;;;;;;7.50;84.86;97261.47;5042947;28;20035;-60
2021/11/04 07:48:48;;;;;;;0.60;0.20;;;;;;;7.41;82.13;97261.59;5057858;28;20454;-59
2021/11/04 07:51:13;;;;;;;1.20;0.30;;;;;;;7.38;82.55;97264.50;5049384;28;20033;-59
2021/11/04 07:53:39;;;;;;;1.80;0.40;;;;;;;7.51;82.91;97281.19;5051836;28;20032;-59
2021/11/04 07:56:06;;;;;;;1.75;0.40;;;;;;;7.52;83.20;97284.59;5045918;28;20124;-59
2021/11/04 07:58:31;;;;;;;2.20;0.60;;;;;;;7.49;84.22;97280.53;5036501;28;20094;-60
2021/11/04 08:00:57;;;;;;;1.08;0.47;;;;;;;7.50;85.00;97286.50;5045009;28;20041;-60
2021/11/04 08:03:22;;;;;;;0.85;0.30;;;;;;;7.46;85.64;97292.97;5054694;28;20033;-59
2021/11/04 08:05:49;;;;;;;1.33;0.40;;;;;;;7.39;85.18;97297.16;5047887;28;20106;-60
2021/11/04 08:08:14;;;;;;;1.52;0.28;;;;;;;7.34;84.03;97305.38;5048635;28;20056;-57
2021/11/04 08:10:39;;;;;;;2.15;0.43;;;;;;;7.38;85.41;97311.06;5044807;28;20024;-60
2021/11/04 08:13:12;;;;;;;1.75;0.47;;;;;;;7.37;85.47;97307.66;5054279;28;20118;-59
2021/11/04 08:15:39;;;;;;;0.60;0.30;;;;;;;7.39;84.91;97304.91;5054349;28;20107;-60
2021/11/04 08:18:09;;;;;;;1.65;0.30;;;;;;;7.41;83.46;97311.56;5032522;28;20142;-59
2021/11/04 08:20:35;;;;;;;2.35;0.50;;;;;;;7.46;83.88;97316.25;5032917;28;20025;-59
2021/11/04 08:23:02;;;;;;;1.85;0.43;;;;;;;7.51;85.43;97325.16;5031501;28;20107;-60
2021/11/04 08:25:28;;;;;;;1.27;0.40;;;;;;;7.48;86.45;97312.56;5046639;28;20033;-61
2021/11/04 08:27:54;;;;;;;1.50;0.30;;;;;;;7.55;86.68;97330.03;5049519;28;20039;-60
2021/11/04 08:30:21;;;;;;;1.08;0.20;;;;;;;7.48;87.07;97333.25;5048398;28;20028;-58
2021/11/04 08:32:46;;;;;;;1.60;0.50;;;;;;;7.50;87.58;97340.81;5051017;28;20046;-59
2021/11/04 08:35:12;;;;;;;2.22;0.40;;;;;;;7.27;88.04;97296.63;5043571;28;20583;-60
2021/11/04 08:37:37;;;;;;;2.13;0.43;;;;;;;7.50;87.33;97343.41;5021382;28;20029;-61
2021/11/04 08:40:05;;;;;;;3.45;0.50;;;;;;;7.52;86.82;97349.25;5041529;28;20059;-60
2021/11/04 08:42:30;;;;;;;2.13;0.50;;;;;;;7.51;87.62;97356.19;5035205;28;20059;-60
2021/11/04 08:44:57;;;;;;;1.48;0.40;;;;;;;7.51;88.42;97353.59;5034134;28;20467;-60
2021/11/04 08:47:22;;;;;;;1.90;0.60;;;;;;;7.54;89.38;97364.59;5049648;28;20028;-59
2021/11/04 08:49:48;;;;;;;2.95;0.57;;;;;;;7.21;87.58;97321.34;5044113;28;20033;-61
2021/11/04 08:52:13;;;;;;;2.47;0.65;;;;;;;7.44;88.63;97360.38;5034117;28;20174;-60
2021/11/04 08:54:40;;;;;;;2.13;0.60;;;;;;;7.51;89.94;97369.13;5054449;28;20035;-60
2021/11/04 08:57:07;;;;;;;1.90;0.50;;;;;;;7.51;88.50;97374.31;5051481;28;20863;-59
2021/11/04 08:59:34;;;;;;;2.17;0.60;;;;;;;7.45;90.04;97363.78;5044856;28;20507;-60
2021/11/04 09:01:59;;;;;;;6.18;2.38;;;;;;;7.49;90.81;97373.66;5068470;28;20036;-60
2021/11/04 09:04:25;;;;;;;2.72;0.70;;;;;;;7.28;89.19;97345.63;5053523;28;20024;-61
2021/11/04 09:06:53;;;;;;;2.83;0.55;;;;;;;7.44;88.84;97381.06;5048487;28;20040;-59
2021/11/04 09:09:19;;;;;;;1.70;0.50;;;;;;;7.25;90.27;97347.69;5050180;28;20020;-60
2021/11/04 09:11:44;;;;;;;1.85;0.50;;;;;;;7.61;90.46;97397.47;5041214;28;20795;-60
2021/11/04 09:14:11;;;;;;;2.35;0.50;;;;;;;7.51;87.52;97381.25;5056123;28;20056;-60
2021/11/04 09:16:36;;;;;;;2.17;0.60;;;;;;;7.32;86.43;97346.91;5043848;28;20060;-60
2021/11/04 09:19:02;;;;;;;3.65;0.70;;;;;;;7.43;81.98;97361.34;5048600;28;20205;-59
2021/11/04 09:21:28;;;;;;;2.72;0.65;;;;;;;7.79;80.59;97397.34;5043750;28;20032;-61
2021/11/04 09:23:55;;;;;;;2.55;0.50;;;;;;;7.91;80.10;97417.81;5029722;28;20041;-59
2021/11/04 09:26:20;;;;;;;3.03;0.60;;;;;;;8.08;79.72;97414.28;5031619;28;20056;-59
2021/11/04 09:28:46;;;;;;;3.13;0.60;;;;;;;8.23;79.33;97420.47;5051061;28;20795;-60
2021/11/04 09:31:11;;;;;;;1.80;0.60;;;;;;;8.38;79.37;97425.03;5057856;28;20040;-60
2021/11/04 09:33:37;;;;;;;4.05;0.90;;;;;;;8.55;77.11;97424.09;5031851;28;20284;-60
2021/11/04 09:36:03;;;;;;;4.38;1.40;;;;;;;8.74;76.70;97435.94;5038612;28;20024;-61
2021/11/04 09:38:28;;;;;;;4.25;0.95;;;;;;;8.93;73.45;97450.38;5053793;28;20017;-60
2021/11/04 09:40:54;;;;;;;3.78;0.90;;;;;;;9.00;73.60;97438.38;5056519;28;20042;-60
2021/11/04 09:43:21;;;;;;;2.28;0.50;;;;;;;9.17;72.53;97464.28;5041165;28;20020;-59
2021/11/04 09:45:46;;;;;;;2.03;0.50;;;;;;;9.33;73.98;97463.47;5069790;28;20060;-59
2021/11/04 09:48:12;;;;;;;1.55;0.50;;;;;;;9.35;73.68;97464.91;5042250;28;20136;-61
2021/11/04 09:50:37;;;;;;;3.13;1.00;;;;;;;9.34;74.90;97465.88;5054961;28;20470;-60
2021/11/04 09:53:03;;;;;;;5.20;2.05;;;;;;;9.36;74.33;97474.31;5058055;28;20024;-59
2021/11/04 09:55:29;;;;;;;3.53;1.20;;;;;;;9.35;74.50;97470.09;5055393;28;20024;-59
2021/11/04 09:57:57;;;;;;;4.35;1.70;;;;;;;9.40;73.82;97485.16;5053088;28;20060;-59
2021/11/04 10:00:32;;;;;;;5.65;1.90;;;;;;;9.28;72.77;97450.16;5036730;28;20562;-59
2021/11/04 10:03:07;;;;;;;4.03;1.42;;;;;;;9.52;70.90;97488.22;5056835;28;20535;-60
2021/11/04 10:05:45;;;;;;;1.98;0.60;;;;;;;9.39;72.15;97450.63;5052730;28;20024;-59
2021/11/04 10:08:14;;;;;;;2.58;0.70;;;;;;;9.62;73.68;97483.69;5050051;28;20031;-59
2021/11/04 10:10:40;;;;;;;0.28;0.20;;;;;;;9.65;73.12;97475.53;5055227;28;20502;-60
2021/11/04 10:13:08;;;;;;;2.30;0.40;;;;;;;9.74;73.40;97481.53;5057658;28;20024;-61
2021/11/04 10:15:36;;;;;;;2.67;0.50;;;;;;;9.86;74.00;97476.78;5058230;28;20040;-60
2021/11/04 10:18:19;;;;;;;0.73;0.30;;;;;;;9.72;74.11;97427.16;5043435;28;20057;-60
2021/11/04 10:20:59;;;;;;;1.42;0.40;;;;;;;10.08;72.34;97462.25;5033951;28;20035;-60
2021/11/04 10:23:34;;;;;;;;;;;;;;;10.07;72.73;97482.19;5048917;28;20044;-59
2021/11/04 10:26:21;;;;;;;2.70;0.77;;;;;;;9.75;73.89;97439.03;5073702;28;19974;-60
2021/11/04 10:28:49;;;;;;;1.90;0.60;;;;;;;9.98;71.43;97470.22;5049929;28;20502;-60
2021/11/04 10:31:17;;;;;;;2.08;0.70;;;;;;;9.74;71.89;97440.00;5057247;28;20039;-61
2021/11/04 10:33:46;;;;;;;0.98;0.22;;;;;;;9.99;66.67;97475.25;5045347;28;20013;-59
2021/11/04 10:36:19;;;;;;;1.25;0.50;;;;;;;10.10;67.51;97496.66;5032567;28;20036;-59
2021/11/04 10:38:44;;;;;;;2.05;0.57;;;;;;;10.16;64.00;97499.38;5053969;28;20033;-61
2021/11/04 10:41:29;;;;;;;1.38;0.40;;;;;;;10.18;67.72;97488.81;5056330;28;20760;-60
2021/11/04 10:44:07;;;;;;;1.95;0.30;;;;;;;10.25;66.71;97509.75;5049298;28;20021;-60
2021/11/04 10:46:43;;;;;;;2.35;0.40;;;;;;;10.20;67.42;97502.44;5054791;28;20035;-60
2021/11/04 10:49:09;;;;;;;0.68;0.20;;;;;;;10.34;63.07;97499.16;5049973;28;20098;-65
2021/11/04 10:51:35;;;;;;;0.73;0.30;;;;;;;10.38;65.46;97489.22;5046205;28;20471;-58
2021/11/04 10:54:15;;;;;;;1.00;0.30;;;;;;;10.45;62.27;97490.19;5041895;28;20516;-60
2021/11/04 10:56:41;;;;;;;;;;;;;;;10.63;58.18;97489.09;5026768;28;20033;-60
2021/11/04 10:59:10;;;;;;;1.00;0.40;;;;;;;10.70;61.50;97503.84;5072778;28;19912;-59
2021/11/04 11:01:44;;;;;;;1.02;0.30;;;;;;;10.75;58.36;97491.13;5047511;28;20028;-60
2021/11/04 11:04:15;;;;;;;0.85;0.30;;;;;;;10.75;57.48;97480.75;5057990;28;20027;-60
2021/11/04 11:06:52;;;;;;;1.05;0.40;;;;;;;10.86;59.92;97496.91;5051720;28;20112;-61
2021/11/04 11:09:22;;;;;;;0.38;0.20;;;;;;;10.91;55.44;97499.78;5037722;28;20032;-59
2021/11/04 11:11:53;;;;;;;1.35;0.35;;;;;;;10.97;58.53;97501.72;5052075;28;20028;-61
2021/11/04 11:14:19;;;;;;;1.38;0.30;;;;;;;10.90;58.85;97491.19;5040523;28;20102;-60
2021/11/04 11:16:52;;;;;;;0.65;0.20;;;;;;;10.91;57.84;97497.19;5067239;28;20528;-60
2021/11/04 11:19:26;;;;;;;0.40;0.17;;;;;;;11.07;56.90;97497.06;5057597;28;20527;-60
2021/11/04 11:21:52;;;;;;;1.50;0.38;;;;;;;11.01;56.82;97468.38;5037018;28;20025;-60
2021/11/04 11:24:24;;;;;;;2.35;0.52;;;;;;;11.23;54.65;97495.34;5041072;28;20032;-60
2021/11/04 11:26:51;;;;;;;1.42;0.50;;;;;;;11.27;56.36;97504.41;5054593;28;20012;-59
2021/11/04 11:29:16;;;;;;;1.23;0.40;;;;;;;11.11;56.94;97495.72;5061047;28;20025;-59
2021/11/04 11:32:02;;;;;;;1.23;0.30;;;;;;;11.22;57.27;97494.50;5052211;28;20029;-60
2021/11/04 11:34:29;;;;;;;1.00;0.20;;;;;;;11.27;55.68;97500.00;5047585;28;20113;-60
2021/11/04 11:37:14;;;;;;;0.93;0.30;;;;;;;11.40;52.90;97503.78;5057352;28;20052;-60
2021/11/04 11:39:45;;;;;;;1.65;0.50;;;;;;;11.40;54.55;97494.19;5063695;28;20028;-60
2021/11/04 11:42:12;;;;;;;4.97;1.02;;;;;;;11.44;52.86;97505.03;5058069;28;20021;-60